createdAt,value
2024-05-09T00:01:38.808Z,99530.56
2024-05-09T00:04:10.009Z,99529.78
2024-05-09T00:06:39.936Z,99523.16
2024-05-09T00:09:12.935Z,99528.69
2024-05-09T00:11:45.782Z,99527.94
2024-05-09T00:14:15.873Z,99527.97
2024-05-09T00:16:45.918Z,99523.31
2024-05-09T00:19:17.573Z,99523.31
2024-05-09T00:21:47.539Z,99516.66
2024-05-09T00:24:22.660Z,99518.66
2024-05-09T00:26:52.428Z,99519.03
2024-05-09T00:29:22.331Z,99521.31
2024-05-09T00:31:52.830Z,99529.50
2024-05-09T00:34:23.260Z,99524.81
2024-05-09T00:36:54.152Z,99529.91
2024-05-09T00:39:28.815Z,99520.53
2024-05-09T00:41:59.756Z,99524.84
2024-05-09T00:44:29.813Z,99523.66
2024-05-09T00:46:59.843Z,99524.41
2024-05-09T00:49:32.349Z,99519.22
2024-05-09T00:52:03.422Z,99520.75
2024-05-09T00:54:36.424Z,99516.47
2024-05-09T00:57:07.422Z,99521.59
2024-05-09T00:59:37.670Z,99522.00
2024-05-09T01:02:09.664Z,99528.81
2024-05-09T01:04:39.864Z,99527.13
2024-05-09T01:07:11.371Z,99523.38
2024-05-09T01:09:43.974Z,99525.69
2024-05-09T01:12:14.068Z,99517.06
2024-05-09T01:14:44.059Z,99517.09
2024-05-09T01:17:14.316Z,99521.09
2024-05-09T01:19:44.430Z,99521.84
2024-05-09T01:22:14.399Z,99522.63
2024-05-09T01:24:48.623Z,99524.94
2024-05-09T01:27:20.675Z,99526.00
2024-05-09T01:29:50.431Z,99520.13
2024-05-09T01:32:20.292Z,99524.78
2024-05-09T01:34:50.112Z,99521.63
2024-05-09T01:37:19.910Z,99521.66
2024-05-09T01:39:52.385Z,99518.88
2024-05-09T01:42:22.178Z,99513.38
2024-05-09T01:44:51.986Z,99518.31
2024-05-09T01:47:22.049Z,99526.50
2024-05-09T01:49:52.003Z,99517.56
2024-05-09T01:52:21.899Z,99518.88
2024-05-09T01:54:54.448Z,99520.88
2024-05-09T01:57:24.271Z,99512.03
2024-05-09T01:59:54.256Z,99518.66
2024-05-09T02:02:24.125Z,99506.13
2024-05-09T02:04:54.135Z,99514.03
2024-05-09T02:07:23.989Z,99513.97
2024-05-09T02:09:57.550Z,99509.97
2024-05-09T02:12:27.434Z,99510.81
2024-05-09T02:14:57.289Z,99515.97
2024-05-09T02:17:27.599Z,99513.25
2024-05-09T02:19:57.550Z,99524.84
2024-05-09T02:22:27.438Z,99524.38
2024-05-09T02:24:59.861Z,99516.53
2024-05-09T02:27:29.683Z,99512.00
2024-05-09T02:29:59.475Z,99515.50
2024-05-09T02:32:29.407Z,99519.34
2024-05-09T02:34:59.348Z,99512.22
2024-05-09T02:37:26.549Z,99514.13
2024-05-09T02:39:59.097Z,99510.81
2024-05-09T02:42:26.205Z,99516.72
2024-05-09T02:44:56.115Z,99518.69
2024-05-09T02:47:23.467Z,99520.56
2024-05-09T02:49:53.452Z,99522.59
2024-05-09T02:52:20.682Z,99521.00
2024-05-09T02:54:50.428Z,99530.78
2024-05-09T02:57:20.279Z,99531.25
2024-05-09T02:59:50.865Z,99529.25
2024-05-09T03:02:18.156Z,99535.47
2024-05-09T03:04:48.108Z,99528.38
2024-05-09T03:07:15.266Z,99525.97
2024-05-09T03:09:49.059Z,99529.56
2024-05-09T03:12:16.301Z,99527.56
2024-05-09T03:14:48.746Z,99531.78
2024-05-09T03:17:16.004Z,99527.06
2024-05-09T03:20:06.961Z,99531.75
2024-05-09T03:22:36.196Z,99530.81
2024-05-09T03:25:06.055Z,99529.16
2024-05-09T03:27:33.280Z,99531.88
2024-05-09T03:30:07.518Z,99526.53
2024-05-09T03:32:34.896Z,99529.59
2024-05-09T03:35:04.823Z,99530.34
2024-05-09T03:37:34.699Z,99542.03
2024-05-09T03:40:09.181Z,99539.41
2024-05-09T03:42:41.994Z,99546.03
2024-05-09T03:45:14.479Z,99541.31
2024-05-09T03:47:42.334Z,99542.00
2024-05-09T03:50:18.494Z,99546.34
2024-05-09T03:52:53.189Z,99549.38
2024-05-09T03:55:23.057Z,99548.22
2024-05-09T03:57:50.265Z,99545.91
2024-05-09T04:00:31.067Z,99547.44
2024-05-09T04:03:06.679Z,99551.78
2024-05-09T04:05:40.001Z,99553.41
2024-05-09T04:08:10.103Z,99558.84
2024-05-09T04:10:40.372Z,99547.09
2024-05-09T04:13:07.915Z,99551.81
2024-05-09T04:15:40.572Z,99551.81
2024-05-09T04:18:07.992Z,99551.72
2024-05-09T04:20:40.428Z,99561.09
2024-05-09T04:23:12.602Z,99552.13
2024-05-09T04:25:45.795Z,99557.47
2024-05-09T04:28:13.468Z,99556.34
2024-05-09T04:30:46.785Z,99554.41
2024-05-09T04:33:15.766Z,99560.28
2024-05-09T04:35:46.105Z,99561.84
2024-05-09T04:38:14.566Z,99554.88
2024-05-09T04:40:45.242Z,99559.59
2024-05-09T04:43:15.826Z,99563.50
2024-05-09T04:45:48.501Z,99559.56
2024-05-09T04:48:16.833Z,99554.59
2024-05-09T04:50:47.551Z,99552.63
2024-05-09T04:53:16.678Z,99547.69
2024-05-09T04:55:46.792Z,99561.75
2024-05-09T04:58:14.265Z,99559.00
2024-05-09T05:00:44.169Z,99563.72
2024-05-09T05:03:15.855Z,99566.50
2024-05-09T05:05:47.181Z,99573.53
2024-05-09T05:08:15.383Z,99567.66
2024-05-09T05:10:46.630Z,99573.19
2024-05-09T05:13:20.748Z,99573.25
2024-05-09T05:15:53.611Z,99572.84
2024-05-09T05:18:24.249Z,99578.34
2024-05-09T05:20:54.606Z,99571.69
2024-05-09T05:23:25.541Z,99579.16
2024-05-09T05:25:56.034Z,99583.06
2024-05-09T05:28:23.580Z,99581.78
2024-05-09T05:30:53.516Z,99582.94
2024-05-09T05:33:26.292Z,99587.34
2024-05-09T05:35:55.901Z,99583.50
2024-05-09T05:38:28.201Z,99581.19
2024-05-09T05:40:56.351Z,99589.72
2024-05-09T05:43:26.233Z,99588.69
2024-05-09T05:45:54.964Z,99593.44
2024-05-09T05:48:27.687Z,99593.88
2024-05-09T05:50:54.962Z,99583.00
2024-05-09T05:53:24.737Z,99595.78
2024-05-09T05:55:52.044Z,99593.16
2024-05-09T05:58:22.616Z,99594.63
2024-05-09T06:00:53.312Z,99596.19
2024-05-09T06:03:23.290Z,99587.16
2024-05-09T06:05:53.255Z,99593.06
2024-05-09T06:08:23.758Z,99594.56
2024-05-09T06:10:52.033Z,99593.78
2024-05-09T06:13:21.975Z,99594.09
2024-05-09T06:15:51.573Z,99597.31
2024-05-09T06:18:21.901Z,99595.31
2024-05-09T06:20:49.328Z,99603.19
2024-05-09T06:23:22.120Z,99594.22
2024-05-09T06:25:51.077Z,99603.19
2024-05-09T06:28:20.897Z,99609.44
2024-05-09T06:30:48.044Z,99599.78
2024-05-09T06:33:18.123Z,99600.63
2024-05-09T06:35:46.449Z,99604.81
2024-05-09T06:38:16.457Z,99604.78
2024-05-09T06:40:46.411Z,99589.53
2024-05-09T06:43:18.699Z,99602.81
2024-05-09T06:45:47.885Z,99603.91
2024-05-09T06:48:20.647Z,99600.53
2024-05-09T06:50:48.513Z,99605.25
2024-05-09T06:53:19.647Z,99608.03
2024-05-09T06:55:49.927Z,99598.00
2024-05-09T06:58:19.975Z,99603.97
2024-05-09T07:00:47.245Z,99602.84
2024-05-09T07:03:19.182Z,99608.03
2024-05-09T07:05:48.661Z,99610.75
2024-05-09T07:08:19.684Z,99614.59
2024-05-09T07:10:50.214Z,99619.25
2024-05-09T07:13:20.261Z,99619.56
2024-05-09T07:15:47.409Z,99618.81
2024-05-09T07:18:20.257Z,99617.63
2024-05-09T07:20:50.740Z,99615.16
2024-05-09T07:23:21.262Z,99615.69
2024-05-09T07:25:51.182Z,99624.31
2024-05-09T07:28:22.608Z,99622.47
2024-05-09T07:30:49.736Z,99625.22
2024-05-09T07:33:22.098Z,99624.53
2024-05-09T07:35:50.818Z,99626.84
2024-05-09T07:38:20.867Z,99634.19
2024-05-09T07:40:53.462Z,99636.13
2024-05-09T07:43:20.686Z,99624.28
2024-05-09T07:45:54.096Z,99627.00
2024-05-09T07:52:45.965Z,99628.63
2024-05-09T07:53:48.837Z,99628.03
2024-05-09T07:56:25.440Z,99626.28
2024-05-09T07:58:53.836Z,99631.88
2024-05-09T08:01:25.796Z,99629.13
2024-05-09T08:03:53.933Z,99621.09
2024-05-09T08:06:23.837Z,99636.47
2024-05-09T08:08:51.050Z,99631.50
2024-05-09T08:11:20.920Z,99640.16
2024-05-09T08:13:50.878Z,99641.63
2024-05-09T08:16:20.809Z,99636.34
2024-05-09T08:18:48.161Z,99636.22
2024-05-09T08:21:19.405Z,99634.69
2024-05-09T08:23:46.590Z,99634.72
2024-05-09T08:26:16.361Z,99648.78
2024-05-09T08:28:43.488Z,99639.50
2024-05-09T08:31:16.179Z,99644.22
2024-05-09T08:33:47.795Z,99645.00
2024-05-09T08:36:17.945Z,99637.84
2024-05-09T08:38:45.127Z,99640.25
2024-05-09T08:41:17.319Z,99645.69
2024-05-09T08:43:44.928Z,99648.78
2024-05-09T08:46:19.186Z,99650.22
2024-05-09T08:48:49.937Z,99640.47
2024-05-09T08:51:20.032Z,99643.00
2024-05-09T08:53:47.313Z,99639.16
2024-05-09T08:56:19.140Z,99635.75
2024-05-09T08:58:48.218Z,99636.00
2024-05-09T09:01:21.854Z,99636.00
2024-05-09T09:03:51.746Z,99635.25
2024-05-09T09:06:24.634Z,99638.81
2024-05-09T09:08:53.397Z,99645.47
2024-05-09T09:11:23.241Z,99647.66
2024-05-09T09:13:50.475Z,99643.47
2024-05-09T09:16:23.363Z,99638.63
2024-05-09T09:18:53.568Z,99647.81
2024-05-09T09:21:23.387Z,99645.63
2024-05-09T09:23:50.537Z,99646.50
2024-05-09T09:26:20.893Z,99645.63
2024-05-09T09:28:48.084Z,99646.56
2024-05-09T09:31:22.678Z,99645.56
2024-05-09T09:33:50.152Z,99649.22
2024-05-09T09:36:19.992Z,99650.50
2024-05-09T09:38:48.127Z,99654.88
2024-05-09T09:41:20.931Z,99651.72
2024-05-09T09:43:48.593Z,99652.41
2024-05-09T09:46:21.318Z,99644.44
2024-05-09T09:48:52.042Z,99634.66
2024-05-09T09:51:22.831Z,99646.16
2024-05-09T09:53:52.817Z,99643.44
2024-05-09T09:56:24.086Z,99648.19
2024-05-09T09:58:53.293Z,99636.47
2024-05-09T10:01:23.204Z,99632.91
2024-05-09T10:03:54.008Z,99645.88
2024-05-09T10:06:25.840Z,99638.81
2024-05-09T10:08:54.329Z,99638.03
2024-05-09T10:11:39.466Z,99636.78
2024-05-09T10:14:09.254Z,99641.16
2024-05-09T10:16:45.728Z,99643.94
2024-05-09T10:19:26.429Z,99638.50
2024-05-09T10:22:04.646Z,99646.31
2024-05-09T10:24:47.467Z,99647.47
2024-05-09T10:27:17.413Z,99640.84
2024-05-09T10:29:54.174Z,99645.53
2024-05-09T10:32:24.125Z,99643.22
2024-05-09T10:35:07.663Z,99648.28
2024-05-09T10:37:38.295Z,99646.31
2024-05-09T10:40:13.972Z,99643.97
2024-05-09T10:42:47.728Z,99640.84
2024-05-09T10:45:16.599Z,99640.50
2024-05-09T10:47:46.657Z,99642.44
2024-05-09T10:50:22.653Z,99641.25
2024-05-09T10:52:58.539Z,99644.41
2024-05-09T10:55:25.985Z,99639.69
2024-05-09T10:57:55.866Z,99641.22
2024-05-09T11:00:29.969Z,99640.06
2024-05-09T11:03:03.819Z,99630.69
2024-05-09T11:05:34.919Z,99629.16
2024-05-09T11:08:05.282Z,99643.22
2024-05-09T11:10:34.376Z,99631.44
2024-05-09T11:13:04.638Z,99632.66
2024-05-09T11:15:38.729Z,99629.53
2024-05-09T11:18:09.104Z,99623.69
2024-05-09T11:20:39.157Z,99631.13
2024-05-09T11:23:09.538Z,99634.13
2024-05-09T11:25:36.832Z,99626.19
2024-05-09T11:28:07.464Z,99631.72
2024-05-09T11:30:35.560Z,99629.88
2024-05-09T11:33:05.869Z,99629.13
2024-05-09T11:35:33.233Z,99625.59
2024-05-09T11:38:06.092Z,99626.72
2024-05-09T11:40:34.647Z,99624.44
2024-05-09T11:43:04.739Z,99618.13
2024-05-09T11:45:32.270Z,99618.09
2024-05-09T11:48:02.692Z,99619.97
2024-05-09T11:50:35.606Z,99616.84
2024-05-09T11:53:09.535Z,99613.31
2024-05-09T11:55:36.921Z,99610.25
2024-05-09T11:58:08.440Z,99618.53
2024-05-09T12:00:37.572Z,99614.16
2024-05-09T12:03:08.633Z,99614.59
2024-05-09T12:05:35.921Z,99617.00
2024-05-09T12:08:09.629Z,99614.63
2024-05-09T12:10:37.514Z,99622.06
2024-05-09T12:13:08.133Z,99618.13
2024-05-09T12:15:37.438Z,99609.16
2024-05-09T12:18:09.165Z,99615.03
2024-05-09T12:20:39.172Z,99607.19
2024-05-09T12:23:12.749Z,99605.25
2024-05-09T12:25:40.364Z,99604.84
2024-05-09T12:28:10.779Z,99597.44
2024-05-09T12:30:40.337Z,99606.41
2024-05-09T12:33:12.907Z,99598.25
2024-05-09T12:35:41.780Z,99604.88
2024-05-09T12:38:15.780Z,99601.75
2024-05-09T12:40:43.482Z,99608.41
2024-05-09T12:43:13.531Z,99597.03
2024-05-09T12:45:40.928Z,99599.34
2024-05-09T12:48:12.265Z,99602.47
2024-05-09T12:50:40.408Z,99596.63
2024-05-09T12:53:10.506Z,99591.94
2024-05-09T12:55:48.258Z,99592.31
2024-05-09T12:58:24.753Z,99589.63
2024-05-09T13:00:52.624Z,99588.47
2024-05-09T13:03:22.912Z,99586.09
2024-05-09T13:05:50.653Z,99592.72
2024-05-09T13:08:21.006Z,99591.97
2024-05-09T13:10:51.423Z,99586.06
2024-05-09T13:13:21.389Z,99593.91
2024-05-09T13:15:48.720Z,99585.66
2024-05-09T13:18:18.787Z,99591.13
2024-05-09T13:20:45.998Z,99577.41
2024-05-09T13:23:15.822Z,99587.56
2024-05-09T13:25:43.209Z,99591.44
2024-05-09T13:28:15.748Z,99584.09
2024-05-09T13:30:43.413Z,99585.69
2024-05-09T13:33:14.442Z,99587.66
2024-05-09T13:35:46.785Z,99588.44
2024-05-09T13:38:20.043Z,99585.75
2024-05-09T13:40:50.621Z,99584.16
2024-05-09T13:43:24.126Z,99590.41
2024-05-09T13:45:55.360Z,99586.09
2024-05-09T13:48:25.619Z,99591.56
2024-05-09T13:50:52.918Z,99579.06
2024-05-09T13:53:22.797Z,99583.72
2024-05-09T13:55:50.354Z,99582.94
2024-05-09T13:58:20.661Z,99578.59
2024-05-09T14:00:50.901Z,99584.47
2024-05-09T14:03:22.098Z,99585.63
2024-05-09T14:05:51.296Z,99588.00
2024-05-09T14:08:22.837Z,99585.28
2024-05-09T14:10:50.909Z,99580.66
2024-05-09T14:13:20.963Z,99575.16
2024-05-09T14:15:51.363Z,99573.16
2024-05-09T14:18:21.448Z,99575.91
2024-05-09T14:20:49.790Z,99575.13
2024-05-09T14:23:20.969Z,99575.44
2024-05-09T14:25:52.185Z,99575.41
2024-05-09T14:28:23.061Z,99576.91
2024-05-09T14:30:53.489Z,99573.41
2024-05-09T14:33:26.833Z,99574.28
2024-05-09T14:35:54.592Z,99576.22
2024-05-09T14:38:32.124Z,99568.06
2024-05-09T14:40:59.661Z,99566.84
2024-05-09T14:43:29.774Z,99564.47
2024-05-09T14:45:59.668Z,99567.25
2024-05-09T14:48:30.139Z,99568.81
2024-05-09T14:50:57.439Z,99564.97
2024-05-09T14:53:28.399Z,99563.38
2024-05-09T14:55:55.891Z,99568.84
2024-05-09T14:58:26.622Z,99561.00
2024-05-09T15:00:53.877Z,99572.41
2024-05-09T15:03:26.507Z,99568.06
2024-05-09T15:05:53.970Z,99571.19
2024-05-09T15:08:24.001Z,99566.53
2024-05-09T15:10:51.312Z,99559.88
2024-05-09T15:13:21.618Z,99567.31
2024-05-09T15:15:49.230Z,99575.94
2024-05-09T15:18:19.483Z,99571.63
2024-05-09T15:20:49.510Z,99575.13
2024-05-09T15:23:19.751Z,99582.53
2024-05-09T15:25:47.423Z,99566.47
2024-05-09T15:28:17.680Z,99567.94
2024-05-09T15:30:46.595Z,99573.88
2024-05-09T15:33:17.729Z,99567.56
2024-05-09T15:35:47.054Z,99575.69
2024-05-09T15:38:20.209Z,99566.97
2024-05-09T15:40:48.286Z,99561.50
2024-05-09T15:43:18.486Z,99568.88
2024-05-09T15:45:45.811Z,99568.31
2024-05-09T15:48:15.993Z,99561.66
2024-05-09T15:50:45.577Z,99582.31
2024-05-09T15:53:15.709Z,99573.69
2024-05-09T15:55:45.634Z,99564.31
2024-05-09T15:58:16.190Z,99570.50
2024-05-09T16:00:48.682Z,99572.88
2024-05-09T16:03:21.409Z,99566.59
2024-05-09T16:05:51.427Z,99565.41
2024-05-09T16:08:21.383Z,99564.28
2024-05-09T16:10:51.460Z,99573.66
2024-05-09T16:13:22.105Z,99573.59
2024-05-09T16:15:49.417Z,99570.50
2024-05-09T16:18:19.745Z,99572.06
2024-05-09T16:20:49.490Z,99579.38
2024-05-09T16:23:21.762Z,99577.06
2024-05-09T16:25:52.125Z,99572.75
2024-05-09T16:28:23.892Z,99573.56
2024-05-09T16:30:55.275Z,99582.09
2024-05-09T16:33:26.731Z,99574.16
2024-05-09T16:35:53.980Z,99575.28
2024-05-09T16:38:23.846Z,99577.94
2024-05-09T16:40:55.937Z,99571.78
2024-05-09T16:43:26.073Z,99567.88
2024-05-09T16:45:53.516Z,99563.13
2024-05-09T16:48:25.612Z,99574.66
2024-05-09T16:50:52.929Z,99577.91
2024-05-09T16:53:23.412Z,99577.50
2024-05-09T16:55:50.590Z,99584.38
2024-05-09T16:58:23.346Z,99578.06
2024-05-09T17:00:51.058Z,99584.69
2024-05-09T17:03:21.605Z,99584.16
2024-05-09T17:05:50.582Z,99588.44
2024-05-09T17:08:20.694Z,99595.81
2024-05-09T17:10:49.456Z,99600.88
2024-05-09T17:13:23.015Z,99605.44
2024-05-09T17:15:53.129Z,99599.19
2024-05-09T17:18:23.237Z,99598.31
2024-05-09T17:20:53.520Z,99603.75
2024-05-09T17:23:20.683Z,99599.84
2024-05-09T17:25:50.471Z,99596.75
2024-05-09T17:28:20.656Z,99599.38
2024-05-09T17:30:51.423Z,99606.31
2024-05-09T17:33:18.945Z,99613.72
2024-05-09T17:35:50.780Z,99610.25
2024-05-09T17:38:20.412Z,99605.59
2024-05-09T17:40:51.558Z,99607.88
2024-05-09T17:43:21.767Z,99617.34
2024-05-09T17:45:51.796Z,99620.09
2024-05-09T17:48:19.506Z,99621.53
2024-05-09T17:50:51.880Z,99620.31
2024-05-09T17:53:20.321Z,99623.09
2024-05-09T17:55:54.062Z,99617.69
2024-05-09T17:58:24.093Z,99618.19
2024-05-09T18:00:54.278Z,99628.31
2024-05-09T18:03:23.394Z,99633.28
2024-05-09T18:05:53.920Z,99635.25
2024-05-09T18:08:21.282Z,99637.56
2024-05-09T18:10:52.720Z,99637.97
2024-05-09T18:13:24.149Z,99642.84
2024-05-09T18:15:54.256Z,99642.09
2024-05-09T18:18:21.631Z,99644.53
2024-05-09T18:20:53.037Z,99656.59
2024-05-09T18:23:20.235Z,99653.09
2024-05-09T18:25:54.713Z,99658.31
2024-05-09T18:28:25.056Z,99655.28
2024-05-09T18:30:55.180Z,99671.31
2024-05-09T18:33:23.559Z,99661.84
2024-05-09T18:35:53.442Z,99669.66
2024-05-09T18:38:26.891Z,99671.13
2024-05-09T18:40:54.447Z,99676.13
2024-05-09T18:43:28.950Z,99676.56
2024-05-09T18:46:06.181Z,99681.91
2024-05-09T18:48:36.668Z,99678.59
2024-05-09T18:51:05.654Z,99684.75
2024-05-09T18:53:35.493Z,99685.53
2024-05-09T18:56:02.724Z,99692.84
2024-05-09T18:58:32.519Z,99689.66
2024-05-09T19:01:01.736Z,99696.06
2024-05-09T19:03:35.528Z,99704.91
2024-05-09T19:06:03.516Z,99698.31
2024-05-09T19:08:33.731Z,99705.78
2024-05-09T19:11:02.058Z,99709.63
2024-05-09T19:13:32.108Z,99706.06
2024-05-09T19:15:59.496Z,99708.50
2024-05-09T19:18:30.913Z,99710.66
2024-05-09T19:21:00.875Z,99719.38
2024-05-09T19:23:35.177Z,99720.47
2024-05-09T19:26:05.431Z,99723.25
2024-05-09T19:28:35.271Z,99729.72
2024-05-09T19:31:02.778Z,99725.88
2024-05-09T19:33:32.752Z,99731.19
2024-05-09T19:36:02.795Z,99728.09
2024-05-09T19:38:32.783Z,99742.53
2024-05-09T19:41:00.057Z,99732.69
2024-05-09T19:43:32.274Z,99724.88
2024-05-09T19:46:01.216Z,99732.72
2024-05-09T19:48:31.371Z,99730.81
2024-05-09T19:50:58.834Z,99728.50
2024-05-09T19:53:31.573Z,99726.41
2024-05-09T19:55:59.019Z,99731.47
2024-05-09T19:58:28.947Z,99729.13
2024-05-09T20:00:56.258Z,99730.69
2024-05-09T20:03:26.152Z,99731.94
2024-05-09T20:05:53.383Z,99730.75
2024-05-09T20:08:23.242Z,99737.34
2024-05-09T20:10:53.871Z,99732.25
2024-05-09T20:13:24.050Z,99738.47
2024-05-09T20:15:51.529Z,99734.13
2024-05-09T20:18:21.351Z,99734.91
2024-05-09T20:20:51.630Z,99740.50
2024-05-09T20:23:23.129Z,99743.13
2024-05-09T20:25:52.887Z,99739.63
2024-05-09T20:28:22.799Z,99743.44
2024-05-09T20:30:50.248Z,99747.75
2024-05-09T20:33:21.550Z,99748.19
2024-05-09T20:35:48.779Z,99752.75
2024-05-09T20:38:18.614Z,99750.78
2024-05-09T20:40:48.612Z,99749.94
2024-05-09T20:43:23.184Z,99757.53
2024-05-09T20:45:50.432Z,99759.94
2024-05-09T20:48:20.648Z,99749.84
2024-05-09T20:50:48.011Z,99763.03
2024-05-09T20:53:18.977Z,99755.66
2024-05-09T20:55:47.701Z,99758.44
2024-05-09T20:58:20.723Z,99761.41
2024-05-09T21:00:48.102Z,99761.34
2024-05-09T21:03:18.564Z,99753.88
2024-05-09T21:05:46.571Z,99755.47
2024-05-09T21:08:17.174Z,99765.56
2024-05-09T21:10:46.993Z,99773.25
2024-05-09T21:13:17.007Z,99769.34
2024-05-09T21:15:47.095Z,99768.09
2024-05-09T21:18:17.013Z,99770.22
2024-05-09T21:20:44.568Z,99779.09
2024-05-09T21:23:14.409Z,99780.75
2024-05-09T21:25:41.584Z,99777.69
2024-05-09T21:28:11.517Z,99777.59
2024-05-09T21:30:42.282Z,99777.59
2024-05-09T21:33:17.145Z,99775.66
2024-05-09T21:35:44.979Z,99783.13
2024-05-09T21:38:16.345Z,99785.47
2024-05-09T21:40:44.229Z,99788.19
2024-05-09T21:43:17.688Z,99783.91
2024-05-09T21:45:45.350Z,99792.06
2024-05-09T21:48:18.600Z,99790.47
2024-05-09T21:50:48.100Z,99799.72
2024-05-09T21:53:18.988Z,99797.41
2024-05-09T21:55:47.158Z,99798.34
2024-05-09T21:58:17.681Z,99794.41
2024-05-09T22:00:46.458Z,99795.69
2024-05-09T22:03:19.500Z,99799.56
2024-05-09T22:05:46.820Z,99792.19
2024-05-09T22:08:16.874Z,99783.53
2024-05-09T22:10:44.524Z,99796.34
2024-05-09T22:13:19.289Z,99788.97
2024-05-09T22:15:46.761Z,99790.56
2024-05-09T22:18:19.493Z,99790.56
2024-05-09T22:20:47.196Z,99786.97
2024-05-09T22:23:20.255Z,99790.16
2024-05-09T22:25:48.369Z,99786.88
2024-05-09T22:28:18.609Z,99785.59
2024-05-09T22:30:50.694Z,99787.34
2024-05-09T22:33:23.489Z,99791.63
2024-05-09T22:35:51.758Z,99785.84
2024-05-09T22:38:22.950Z,99790.84
2024-05-09T22:40:50.310Z,99786.63
2024-05-09T22:43:25.736Z,99784.25
2024-05-09T22:45:56.295Z,99781.66
2024-05-09T22:52:18.451Z,99779.78
2024-05-09T22:54:45.627Z,99775.34
2024-05-09T22:57:15.404Z,99776.56
2024-05-09T22:59:44.190Z,99775.34
2024-05-09T23:02:18.190Z,99762.00
2024-05-09T23:04:48.568Z,99760.88
2024-05-09T23:07:21.175Z,99769.31
2024-05-09T23:09:48.430Z,99765.34
2024-05-09T23:12:18.686Z,99774.28
2024-05-09T23:14:45.836Z,99760.56
2024-05-09T23:17:19.581Z,99763.34
2024-05-09T23:19:48.202Z,99760.25
2024-05-09T23:22:20.885Z,99759.47
2024-05-09T23:24:48.240Z,99758.25
2024-05-09T23:27:20.922Z,99762.97
2024-05-09T23:29:48.082Z,99756.25
2024-05-09T23:32:18.488Z,99751.06
2024-05-09T23:34:48.087Z,99748.81
2024-05-09T23:37:20.902Z,99748.66
2024-05-09T23:39:48.213Z,99735.94
2024-05-09T23:42:17.960Z,99738.19
2024-05-09T23:44:45.115Z,99736.25
2024-05-09T23:47:17.968Z,99740.84
2024-05-09T23:49:45.339Z,99733.84
2024-05-09T23:52:15.325Z,99739.34
2024-05-09T23:54:49.394Z,99733.84
2024-05-09T23:57:19.471Z,99727.97
2024-05-09T23:59:49.757Z,99740.78
